sensor_id;sensor_type;location;lat;lon;timestamp;temperature;humidity
25554;DHT22;13446;50.926;5.332;2022-12-18T00:01:44;-3.00;99.90
25554;DHT22;13446;50.926;5.332;2022-12-18T00:04:20;-3.20;99.90
25554;DHT22;13446;50.926;5.332;2022-12-18T00:06:45;-3.20;99.90
25554;DHT22;13446;50.926;5.332;2022-12-18T00:09:11;-3.20;99.90
25554;DHT22;13446;50.926;5.332;2022-12-18T00:11:36;-3.20;99.90
25554;DHT22;13446;50.926;5.332;2022-12-18T00:14:02;-3.40;99.90
25554;DHT22;13446;50.926;5.332;2022-12-18T00:16:28;-3.40;99.90
25554;DHT22;13446;50.926;5.332;2022-12-18T00:18:55;-3.40;99.90
25554;DHT22;13446;50.926;5.332;2022-12-18T00:21:22;-3.30;99.90
25554;DHT22;13446;50.926;5.332;2022-12-18T00:23:49;-3.40;99.90
25554;DHT22;13446;50.926;5.332;2022-12-18T00:26:18;-3.20;99.90
25554;DHT22;13446;50.926;5.332;2022-12-18T00:28:44;-3.20;99.90
25554;DHT22;13446;50.926;5.332;2022-12-18T00:31:10;-3.10;99.90
25554;DHT22;13446;50.926;5.332;2022-12-18T00:33:36;-3.20;99.90
25554;DHT22;13446;50.926;5.332;2022-12-18T00:36:10;-3.20;99.90
25554;DHT22;13446;50.926;5.332;2022-12-18T00:38:36;-3.00;99.90
25554;DHT22;13446;50.926;5.332;2022-12-18T00:41:02;-2.70;99.90
25554;DHT22;13446;50.926;5.332;2022-12-18T00:43:28;-2.50;99.90
25554;DHT22;13446;50.926;5.332;2022-12-18T00:45:54;-2.70;99.90
25554;DHT22;13446;50.926;5.332;2022-12-18T00:48:19;-2.80;99.90
25554;DHT22;13446;50.926;5.332;2022-12-18T00:50:49;-3.00;99.90
25554;DHT22;13446;50.926;5.332;2022-12-18T00:53:15;-3.30;99.90
25554;DHT22;13446;50.926;5.332;2022-12-18T00:55:41;-3.50;99.90
25554;DHT22;13446;50.926;5.332;2022-12-18T00:58:07;-3.60;99.90
25554;DHT22;13446;50.926;5.332;2022-12-18T01:00:33;-3.50;99.90
25554;DHT22;13446;50.926;5.332;2022-12-18T01:02:58;-3.50;99.90
25554;DHT22;13446;50.926;5.332;2022-12-18T01:05:25;-3.50;99.90
25554;DHT22;13446;50.926;5.332;2022-12-18T01:07:50;-3.30;99.90
25554;DHT22;13446;50.926;5.332;2022-12-18T01:10:16;-3.20;99.90
25554;DHT22;13446;50.926;5.332;2022-12-18T01:12:41;-3.30;99.90
25554;DHT22;13446;50.926;5.332;2022-12-18T01:15:07;-3.30;99.90
25554;DHT22;13446;50.926;5.332;2022-12-18T01:17:33;-3.40;99.90
25554;DHT22;13446;50.926;5.332;2022-12-18T01:19:58;-3.40;99.90
25554;DHT22;13446;50.926;5.332;2022-12-18T01:22:24;-3.50;99.90
25554;DHT22;13446;50.926;5.332;2022-12-18T01:24:50;-3.50;99.90
25554;DHT22;13446;50.926;5.332;2022-12-18T01:27:15;-3.50;99.90
25554;DHT22;13446;50.926;5.332;2022-12-18T01:29:41;-3.40;99.90
25554;DHT22;13446;50.926;5.332;2022-12-18T01:32:07;-3.40;99.90
25554;DHT22;13446;50.926;5.332;2022-12-18T01:34:34;-3.30;99.90
25554;DHT22;13446;50.926;5.332;2022-12-18T01:37:02;-3.20;99.90
25554;DHT22;13446;50.926;5.332;2022-12-18T01:39:27;-3.20;99.90
25554;DHT22;13446;50.926;5.332;2022-12-18T01:41:53;-3.30;99.90
25554;DHT22;13446;50.926;5.332;2022-12-18T01:47:18;-3.30;99.90
25554;DHT22;13446;50.926;5.332;2022-12-18T01:49:45;-3.50;99.90
25554;DHT22;13446;50.926;5.332;2022-12-18T01:52:11;-3.30;99.90
25554;DHT22;13446;50.926;5.332;2022-12-18T01:54:36;-3.40;99.90
25554;DHT22;13446;50.926;5.332;2022-12-18T01:57:02;-3.50;99.90
25554;DHT22;13446;50.926;5.332;2022-12-18T01:59:27;-3.50;99.90
25554;DHT22;13446;50.926;5.332;2022-12-18T02:01:53;-3.60;99.90
25554;DHT22;13446;50.926;5.332;2022-12-18T02:04:26;-3.60;99.90
25554;DHT22;13446;50.926;5.332;2022-12-18T02:07:09;-3.60;99.90
25554;DHT22;13446;50.926;5.332;2022-12-18T02:09:57;-3.60;99.90
25554;DHT22;13446;50.926;5.332;2022-12-18T02:12:25;-3.70;99.90
25554;DHT22;13446;50.926;5.332;2022-12-18T02:15:07;-3.60;99.90
25554;DHT22;13446;50.926;5.332;2022-12-18T02:17:43;-3.70;99.90
25554;DHT22;13446;50.926;5.332;2022-12-18T02:20:28;-3.70;99.90
25554;DHT22;13446;50.926;5.332;2022-12-18T02:28:30;-3.60;99.90
25554;DHT22;13446;50.926;5.332;2022-12-18T02:30:57;-3.60;99.90
25554;DHT22;13446;50.926;5.332;2022-12-18T02:33:25;-3.70;99.90
25554;DHT22;13446;50.926;5.332;2022-12-18T02:35:52;-3.60;99.90
25554;DHT22;13446;50.926;5.332;2022-12-18T02:38:19;-3.70;99.90
25554;DHT22;13446;50.926;5.332;2022-12-18T02:40:45;-3.80;99.90
25554;DHT22;13446;50.926;5.332;2022-12-18T02:43:14;-3.80;99.90
25554;DHT22;13446;50.926;5.332;2022-12-18T02:48:35;-3.80;99.90
25554;DHT22;13446;50.926;5.332;2022-12-18T02:56:06;-3.80;99.90
25554;DHT22;13446;50.926;5.332;2022-12-18T03:03:36;-4.10;99.90
25554;DHT22;13446;50.926;5.332;2022-12-18T03:06:05;-4.10;99.90
25554;DHT22;13446;50.926;5.332;2022-12-18T03:08:37;-4.00;99.90
25554;DHT22;13446;50.926;5.332;2022-12-18T03:11:04;-3.90;99.90
25554;DHT22;13446;50.926;5.332;2022-12-18T03:13:39;-3.70;99.90
25554;DHT22;13446;50.926;5.332;2022-12-18T03:16:06;-3.80;99.90
25554;DHT22;13446;50.926;5.332;2022-12-18T03:18:40;-4.00;99.90
25554;DHT22;13446;50.926;5.332;2022-12-18T03:21:07;-4.10;99.90
25554;DHT22;13446;50.926;5.332;2022-12-18T03:23:36;-4.20;99.90
25554;DHT22;13446;50.926;5.332;2022-12-18T03:26:05;-4.30;99.90
25554;DHT22;13446;50.926;5.332;2022-12-18T03:28:32;-4.40;99.90
25554;DHT22;13446;50.926;5.332;2022-12-18T03:31:00;-4.40;99.90
25554;DHT22;13446;50.926;5.332;2022-12-18T03:33:34;-4.30;99.90
25554;DHT22;13446;50.926;5.332;2022-12-18T03:36:03;-4.30;99.90
25554;DHT22;13446;50.926;5.332;2022-12-18T03:38:28;-4.20;99.90
25554;DHT22;13446;50.926;5.332;2022-12-18T03:40:57;-4.20;99.90
25554;DHT22;13446;50.926;5.332;2022-12-18T03:43:36;-4.20;99.90
25554;DHT22;13446;50.926;5.332;2022-12-18T03:46:17;-4.20;99.90
25554;DHT22;13446;50.926;5.332;2022-12-18T03:48:47;-4.30;99.90
25554;DHT22;13446;50.926;5.332;2022-12-18T03:51:15;-4.20;99.90
25554;DHT22;13446;50.926;5.332;2022-12-18T03:53:45;-4.20;99.90
25554;DHT22;13446;50.926;5.332;2022-12-18T03:56:13;-4.20;99.90
25554;DHT22;13446;50.926;5.332;2022-12-18T03:58:40;-4.30;99.90
25554;DHT22;13446;50.926;5.332;2022-12-18T04:01:07;-4.30;99.90
25554;DHT22;13446;50.926;5.332;2022-12-18T04:03:33;-4.20;99.90
25554;DHT22;13446;50.926;5.332;2022-12-18T04:06:00;-4.10;99.90
25554;DHT22;13446;50.926;5.332;2022-12-18T04:08:27;-4.20;99.90
25554;DHT22;13446;50.926;5.332;2022-12-18T04:10:53;-4.20;99.90
25554;DHT22;13446;50.926;5.332;2022-12-18T04:13:37;-4.20;99.90
25554;DHT22;13446;50.926;5.332;2022-12-18T04:16:03;-4.30;99.90
25554;DHT22;13446;50.926;5.332;2022-12-18T04:18:29;-4.30;99.90
25554;DHT22;13446;50.926;5.332;2022-12-18T04:20:55;-4.30;99.90
25554;DHT22;13446;50.926;5.332;2022-12-18T04:23:20;-4.20;99.90
25554;DHT22;13446;50.926;5.332;2022-12-18T04:25:49;-4.20;99.90
25554;DHT22;13446;50.926;5.332;2022-12-18T04:28:15;-4.20;99.90
25554;DHT22;13446;50.926;5.332;2022-12-18T04:30:40;-4.30;99.90
25554;DHT22;13446;50.926;5.332;2022-12-18T04:33:12;-4.40;99.90
25554;DHT22;13446;50.926;5.332;2022-12-18T04:35:38;-4.50;99.90
25554;DHT22;13446;50.926;5.332;2022-12-18T04:38:05;-4.50;99.90
25554;DHT22;13446;50.926;5.332;2022-12-18T04:40:30;-4.40;99.90
25554;DHT22;13446;50.926;5.332;2022-12-18T04:42:56;-4.40;99.90
25554;DHT22;13446;50.926;5.332;2022-12-18T04:45:21;-4.40;99.90
25554;DHT22;13446;50.926;5.332;2022-12-18T04:47:48;-4.40;99.90
25554;DHT22;13446;50.926;5.332;2022-12-18T04:50:14;-4.50;99.90
25554;DHT22;13446;50.926;5.332;2022-12-18T04:52:39;-4.50;99.90
25554;DHT22;13446;50.926;5.332;2022-12-18T04:55:05;-4.50;99.90
25554;DHT22;13446;50.926;5.332;2022-12-18T04:57:30;-4.40;99.90
25554;DHT22;13446;50.926;5.332;2022-12-18T04:59:56;-4.20;99.90
25554;DHT22;13446;50.926;5.332;2022-12-18T05:02:23;-4.30;99.90
25554;DHT22;13446;50.926;5.332;2022-12-18T05:04:56;-4.30;99.90
25554;DHT22;13446;50.926;5.332;2022-12-18T05:07:21;-4.30;99.90
25554;DHT22;13446;50.926;5.332;2022-12-18T05:09:47;-4.20;99.90
25554;DHT22;13446;50.926;5.332;2022-12-18T05:12:14;-4.20;99.90
25554;DHT22;13446;50.926;5.332;2022-12-18T05:14:39;-4.20;99.90
25554;DHT22;13446;50.926;5.332;2022-12-18T05:17:05;-4.30;99.90
25554;DHT22;13446;50.926;5.332;2022-12-18T05:19:30;-4.40;99.90
25554;DHT22;13446;50.926;5.332;2022-12-18T05:21:56;-4.40;99.90
25554;DHT22;13446;50.926;5.332;2022-12-18T05:24:21;-4.50;99.90
25554;DHT22;13446;50.926;5.332;2022-12-18T05:26:47;-4.50;99.90
25554;DHT22;13446;50.926;5.332;2022-12-18T05:29:12;-4.40;99.90
25554;DHT22;13446;50.926;5.332;2022-12-18T05:31:38;-4.40;99.90
25554;DHT22;13446;50.926;5.332;2022-12-18T05:34:04;-4.50;99.90
25554;DHT22;13446;50.926;5.332;2022-12-18T05:36:30;-4.50;99.90
25554;DHT22;13446;50.926;5.332;2022-12-18T05:38:55;-4.50;99.90
25554;DHT22;13446;50.926;5.332;2022-12-18T05:41:21;-4.50;99.90
25554;DHT22;13446;50.926;5.332;2022-12-18T05:43:46;-4.50;99.90
25554;DHT22;13446;50.926;5.332;2022-12-18T05:46:13;-4.50;99.90
25554;DHT22;13446;50.926;5.332;2022-12-18T05:48:38;-4.40;99.90
25554;DHT22;13446;50.926;5.332;2022-12-18T05:51:05;-4.40;99.90
25554;DHT22;13446;50.926;5.332;2022-12-18T05:53:31;-4.30;99.90
25554;DHT22;13446;50.926;5.332;2022-12-18T05:55:59;-4.30;99.90
25554;DHT22;13446;50.926;5.332;2022-12-18T05:58:25;-4.40;99.90
25554;DHT22;13446;50.926;5.332;2022-12-18T06:00:51;-4.50;99.90
25554;DHT22;13446;50.926;5.332;2022-12-18T06:03:17;-4.50;99.90
25554;DHT22;13446;50.926;5.332;2022-12-18T06:05:44;-4.50;99.90
25554;DHT22;13446;50.926;5.332;2022-12-18T06:08:10;-4.40;99.90
25554;DHT22;13446;50.926;5.332;2022-12-18T06:10:36;-4.40;99.90
25554;DHT22;13446;50.926;5.332;2022-12-18T06:13:02;-4.50;99.90
25554;DHT22;13446;50.926;5.332;2022-12-18T06:15:28;-4.30;99.90
25554;DHT22;13446;50.926;5.332;2022-12-18T06:17:53;-4.30;99.90
25554;DHT22;13446;50.926;5.332;2022-12-18T06:20:19;-4.40;99.90
25554;DHT22;13446;50.926;5.332;2022-12-18T06:22:45;-4.40;99.90
25554;DHT22;13446;50.926;5.332;2022-12-18T06:25:10;-4.50;99.90
25554;DHT22;13446;50.926;5.332;2022-12-18T06:27:36;-4.30;99.90
25554;DHT22;13446;50.926;5.332;2022-12-18T06:30:02;-4.30;99.90
25554;DHT22;13446;50.926;5.332;2022-12-18T06:32:27;-4.20;99.90
25554;DHT22;13446;50.926;5.332;2022-12-18T06:34:53;-4.30;99.90
25554;DHT22;13446;50.926;5.332;2022-12-18T06:37:20;-4.30;99.90
25554;DHT22;13446;50.926;5.332;2022-12-18T06:39:46;-4.10;99.90
25554;DHT22;13446;50.926;5.332;2022-12-18T06:42:11;-4.30;99.90
25554;DHT22;13446;50.926;5.332;2022-12-18T06:44:37;-4.40;99.90
25554;DHT22;13446;50.926;5.332;2022-12-18T06:47:03;-4.50;99.90
25554;DHT22;13446;50.926;5.332;2022-12-18T06:49:28;-4.60;99.90
25554;DHT22;13446;50.926;5.332;2022-12-18T06:51:54;-4.60;99.90
25554;DHT22;13446;50.926;5.332;2022-12-18T06:54:19;-4.60;99.90
25554;DHT22;13446;50.926;5.332;2022-12-18T06:56:45;-4.70;99.90
25554;DHT22;13446;50.926;5.332;2022-12-18T06:59:12;-4.60;99.90
25554;DHT22;13446;50.926;5.332;2022-12-18T07:01:37;-4.60;99.90
25554;DHT22;13446;50.926;5.332;2022-12-18T07:04:03;-4.60;99.90
25554;DHT22;13446;50.926;5.332;2022-12-18T07:06:28;-4.50;99.90
25554;DHT22;13446;50.926;5.332;2022-12-18T07:08:54;-4.50;99.90
25554;DHT22;13446;50.926;5.332;2022-12-18T07:11:19;-4.50;99.90
25554;DHT22;13446;50.926;5.332;2022-12-18T07:13:45;-4.60;99.90
25554;DHT22;13446;50.926;5.332;2022-12-18T07:16:12;-4.80;99.90
25554;DHT22;13446;50.926;5.332;2022-12-18T07:18:38;-4.70;99.90
25554;DHT22;13446;50.926;5.332;2022-12-18T07:21:04;-4.80;99.90
25554;DHT22;13446;50.926;5.332;2022-12-18T07:23:31;-4.80;99.90
25554;DHT22;13446;50.926;5.332;2022-12-18T07:26:08;-4.70;99.90
25554;DHT22;13446;50.926;5.332;2022-12-18T07:28:34;-4.70;99.90
25554;DHT22;13446;50.926;5.332;2022-12-18T07:31:03;-4.50;99.90
25554;DHT22;13446;50.926;5.332;2022-12-18T07:33:29;-4.60;99.90
25554;DHT22;13446;50.926;5.332;2022-12-18T07:35:55;-4.50;99.90
25554;DHT22;13446;50.926;5.332;2022-12-18T07:38:20;-4.40;99.90
25554;DHT22;13446;50.926;5.332;2022-12-18T07:40:46;-4.40;99.90
25554;DHT22;13446;50.926;5.332;2022-12-18T07:43:11;-4.20;99.90
25554;DHT22;13446;50.926;5.332;2022-12-18T07:45:37;-4.30;99.90
25554;DHT22;13446;50.926;5.332;2022-12-18T07:48:02;-4.40;99.90
25554;DHT22;13446;50.926;5.332;2022-12-18T07:50:28;-4.30;99.90
25554;DHT22;13446;50.926;5.332;2022-12-18T07:52:54;-4.50;99.90
25554;DHT22;13446;50.926;5.332;2022-12-18T07:55:19;-4.60;99.90
25554;DHT22;13446;50.926;5.332;2022-12-18T07:57:45;-4.50;99.90
25554;DHT22;13446;50.926;5.332;2022-12-18T08:00:13;-4.40;99.90
25554;DHT22;13446;50.926;5.332;2022-12-18T08:02:39;-4.40;99.90
25554;DHT22;13446;50.926;5.332;2022-12-18T08:05:04;-4.30;99.90
25554;DHT22;13446;50.926;5.332;2022-12-18T08:07:31;-4.20;99.90
25554;DHT22;13446;50.926;5.332;2022-12-18T08:09:57;-4.10;99.90
25554;DHT22;13446;50.926;5.332;2022-12-18T08:12:25;-4.00;99.90
25554;DHT22;13446;50.926;5.332;2022-12-18T08:14:50;-3.80;99.90
25554;DHT22;13446;50.926;5.332;2022-12-18T08:17:16;-3.90;99.90
25554;DHT22;13446;50.926;5.332;2022-12-18T08:19:41;-3.70;99.90
25554;DHT22;13446;50.926;5.332;2022-12-18T08:22:08;-3.60;99.90
25554;DHT22;13446;50.926;5.332;2022-12-18T08:24:33;-3.50;99.90
25554;DHT22;13446;50.926;5.332;2022-12-18T08:26:59;-3.40;99.90
25554;DHT22;13446;50.926;5.332;2022-12-18T08:29:24;-3.40;99.90
25554;DHT22;13446;50.926;5.332;2022-12-18T08:31:50;-3.40;99.90
25554;DHT22;13446;50.926;5.332;2022-12-18T08:34:16;-3.30;99.90
25554;DHT22;13446;50.926;5.332;2022-12-18T08:36:41;-3.40;99.90
25554;DHT22;13446;50.926;5.332;2022-12-18T08:39:07;-3.40;99.90
25554;DHT22;13446;50.926;5.332;2022-12-18T08:41:32;-3.40;99.90
25554;DHT22;13446;50.926;5.332;2022-12-18T08:43:58;-3.20;99.90
25554;DHT22;13446;50.926;5.332;2022-12-18T08:46:42;-2.80;99.90
25554;DHT22;13446;50.926;5.332;2022-12-18T08:49:08;-2.80;99.90
25554;DHT22;13446;50.926;5.332;2022-12-18T08:51:34;-2.80;99.90
25554;DHT22;13446;50.926;5.332;2022-12-18T08:54:01;-2.60;99.90
25554;DHT22;13446;50.926;5.332;2022-12-18T08:56:27;-2.40;99.90
25554;DHT22;13446;50.926;5.332;2022-12-18T08:58:53;-2.00;99.90
25554;DHT22;13446;50.926;5.332;2022-12-18T09:01:20;-1.40;99.90
25554;DHT22;13446;50.926;5.332;2022-12-18T09:03:46;-0.90;99.90
25554;DHT22;13446;50.926;5.332;2022-12-18T09:06:15;-0.40;99.90
25554;DHT22;13446;50.926;5.332;2022-12-18T09:08:42;-0.10;99.90
25554;DHT22;13446;50.926;5.332;2022-12-18T09:11:40;-0.10;99.90
25554;DHT22;13446;50.926;5.332;2022-12-18T09:14:00;0.10;99.90
25554;DHT22;13446;50.926;5.332;2022-12-18T09:16:25;0.20;99.90
25554;DHT22;13446;50.926;5.332;2022-12-18T09:18:54;0.30;99.90
25554;DHT22;13446;50.926;5.332;2022-12-18T09:21:24;0.30;99.90
25554;DHT22;13446;50.926;5.332;2022-12-18T09:23:50;0.50;99.90
25554;DHT22;13446;50.926;5.332;2022-12-18T09:26:16;0.50;99.90
25554;DHT22;13446;50.926;5.332;2022-12-18T09:28:43;0.60;99.90
25554;DHT22;13446;50.926;5.332;2022-12-18T09:31:10;0.70;99.90
25554;DHT22;13446;50.926;5.332;2022-12-18T09:33:36;0.70;99.90
25554;DHT22;13446;50.926;5.332;2022-12-18T09:36:05;1.10;99.90
25554;DHT22;13446;50.926;5.332;2022-12-18T09:38:32;1.30;99.90
25554;DHT22;13446;50.926;5.332;2022-12-18T09:40:59;1.40;99.90
25554;DHT22;13446;50.926;5.332;2022-12-18T09:43:28;1.40;99.90
25554;DHT22;13446;50.926;5.332;2022-12-18T09:45:57;1.50;99.90
25554;DHT22;13446;50.926;5.332;2022-12-18T09:51:26;1.50;99.90
25554;DHT22;13446;50.926;5.332;2022-12-18T09:53:59;1.60;99.90
25554;DHT22;13446;50.926;5.332;2022-12-18T09:56:28;1.70;99.90
25554;DHT22;13446;50.926;5.332;2022-12-18T10:01:22;1.60;99.90
25554;DHT22;13446;50.926;5.332;2022-12-18T10:03:48;1.40;99.90
25554;DHT22;13446;50.926;5.332;2022-12-18T10:06:25;1.30;99.90
25554;DHT22;13446;50.926;5.332;2022-12-18T10:09:05;1.20;99.90
25554;DHT22;13446;50.926;5.332;2022-12-18T10:21:59;0.80;99.90
25554;DHT22;13446;50.926;5.332;2022-12-18T10:24:29;0.70;99.90
25554;DHT22;13446;50.926;5.332;2022-12-18T10:26:59;1.00;99.90
25554;DHT22;13446;50.926;5.332;2022-12-18T10:29:32;1.20;99.90
25554;DHT22;13446;50.926;5.332;2022-12-18T10:31:57;1.10;99.90
25554;DHT22;13446;50.926;5.332;2022-12-18T10:34:23;1.10;99.90
25554;DHT22;13446;50.926;5.332;2022-12-18T10:36:48;0.90;99.90
25554;DHT22;13446;50.926;5.332;2022-12-18T10:39:24;1.00;99.90
25554;DHT22;13446;50.926;5.332;2022-12-18T10:41:51;0.80;99.90
25554;DHT22;13446;50.926;5.332;2022-12-18T10:44:18;0.70;99.90
25554;DHT22;13446;50.926;5.332;2022-12-18T10:46:54;0.60;99.90
25554;DHT22;13446;50.926;5.332;2022-12-18T10:49:22;0.80;99.90
25554;DHT22;13446;50.926;5.332;2022-12-18T10:51:48;0.70;99.90
25554;DHT22;13446;50.926;5.332;2022-12-18T10:54:15;0.80;99.90
25554;DHT22;13446;50.926;5.332;2022-12-18T10:56:41;0.60;99.90
25554;DHT22;13446;50.926;5.332;2022-12-18T10:59:08;0.60;99.90
25554;DHT22;13446;50.926;5.332;2022-12-18T11:01:45;0.60;99.90
25554;DHT22;13446;50.926;5.332;2022-12-18T11:04:13;0.40;99.90
25554;DHT22;13446;50.926;5.332;2022-12-18T11:06:54;0.00;99.90
25554;DHT22;13446;50.926;5.332;2022-12-18T11:09:21;-0.10;99.90
25554;DHT22;13446;50.926;5.332;2022-12-18T11:11:50;-0.20;99.90
25554;DHT22;13446;50.926;5.332;2022-12-18T11:14:21;-0.20;99.90
25554;DHT22;13446;50.926;5.332;2022-12-18T11:16:48;-0.10;99.90
25554;DHT22;13446;50.926;5.332;2022-12-18T11:21:42;0.00;99.90
25554;DHT22;13446;50.926;5.332;2022-12-18T11:24:15;0.20;99.90
25554;DHT22;13446;50.926;5.332;2022-12-18T11:26:44;0.50;99.90
25554;DHT22;13446;50.926;5.332;2022-12-18T11:29:10;0.60;99.90
25554;DHT22;13446;50.926;5.332;2022-12-18T11:31:40;0.90;99.90
25554;DHT22;13446;50.926;5.332;2022-12-18T11:34:14;0.90;99.90
25554;DHT22;13446;50.926;5.332;2022-12-18T11:36:45;1.10;99.90
25554;DHT22;13446;50.926;5.332;2022-12-18T11:39:24;1.00;99.90
25554;DHT22;13446;50.926;5.332;2022-12-18T11:41:55;1.10;99.90
25554;DHT22;13446;50.926;5.332;2022-12-18T11:44:40;1.20;99.90
25554;DHT22;13446;50.926;5.332;2022-12-18T11:47:15;1.20;99.90
25554;DHT22;13446;50.926;5.332;2022-12-18T11:49:45;1.30;99.90
25554;DHT22;13446;50.926;5.332;2022-12-18T11:52:47;1.50;99.90
25554;DHT22;13446;50.926;5.332;2022-12-18T11:55:12;1.50;99.90
25554;DHT22;13446;50.926;5.332;2022-12-18T12:00:12;1.60;99.90
25554;DHT22;13446;50.926;5.332;2022-12-18T12:08:14;1.70;99.90
25554;DHT22;13446;50.926;5.332;2022-12-18T12:18:32;1.70;99.90
25554;DHT22;13446;50.926;5.332;2022-12-18T12:26:04;1.70;99.90
25554;DHT22;13446;50.926;5.332;2022-12-18T12:33:57;1.90;99.90
25554;DHT22;13446;50.926;5.332;2022-12-18T12:36:32;2.00;99.90
25554;DHT22;13446;50.926;5.332;2022-12-18T12:39:00;1.90;99.90
25554;DHT22;13446;50.926;5.332;2022-12-18T12:41:27;1.80;99.90
25554;DHT22;13446;50.926;5.332;2022-12-18T12:44:19;1.80;99.90
25554;DHT22;13446;50.926;5.332;2022-12-18T12:46:47;1.90;99.90
25554;DHT22;13446;50.926;5.332;2022-12-18T12:49:20;2.00;99.90
25554;DHT22;13446;50.926;5.332;2022-12-18T12:52:07;2.10;99.90
25554;DHT22;13446;50.926;5.332;2022-12-18T12:54:33;2.00;99.90
25554;DHT22;13446;50.926;5.332;2022-12-18T13:01:56;2.10;99.90
25554;DHT22;13446;50.926;5.332;2022-12-18T13:09:31;2.10;99.90
25554;DHT22;13446;50.926;5.332;2022-12-18T13:12:10;2.00;99.90
25554;DHT22;13446;50.926;5.332;2022-12-18T13:14:58;2.10;99.90
25554;DHT22;13446;50.926;5.332;2022-12-18T13:17:36;2.20;99.90
25554;DHT22;13446;50.926;5.332;2022-12-18T13:20:06;2.40;99.90
25554;DHT22;13446;50.926;5.332;2022-12-18T13:22:35;2.50;99.90
25554;DHT22;13446;50.926;5.332;2022-12-18T13:25:00;2.60;99.90
25554;DHT22;13446;50.926;5.332;2022-12-18T13:30:56;2.30;99.90
25554;DHT22;13446;50.926;5.332;2022-12-18T13:38:23;2.20;99.90
25554;DHT22;13446;50.926;5.332;2022-12-18T13:45:43;2.30;99.90
25554;DHT22;13446;50.926;5.332;2022-12-18T13:48:14;2.30;99.90
25554;DHT22;13446;50.926;5.332;2022-12-18T13:50:40;2.20;99.90
25554;DHT22;13446;50.926;5.332;2022-12-18T13:53:06;2.20;99.90
25554;DHT22;13446;50.926;5.332;2022-12-18T13:55:32;2.20;99.90
25554;DHT22;13446;50.926;5.332;2022-12-18T13:58:04;2.50;99.90
25554;DHT22;13446;50.926;5.332;2022-12-18T14:00:30;2.50;99.90
25554;DHT22;13446;50.926;5.332;2022-12-18T14:02:56;2.40;99.90
25554;DHT22;13446;50.926;5.332;2022-12-18T14:05:26;2.40;99.90
25554;DHT22;13446;50.926;5.332;2022-12-18T14:07:52;2.40;99.90
25554;DHT22;13446;50.926;5.332;2022-12-18T14:10:18;2.30;99.90
25554;DHT22;13446;50.926;5.332;2022-12-18T14:12:45;2.20;99.90
25554;DHT22;13446;50.926;5.332;2022-12-18T14:15:31;2.10;99.90
25554;DHT22;13446;50.926;5.332;2022-12-18T14:20:40;2.30;99.90
25554;DHT22;13446;50.926;5.332;2022-12-18T14:23:23;2.10;99.90
25554;DHT22;13446;50.926;5.332;2022-12-18T14:25:49;2.00;99.90
25554;DHT22;13446;50.926;5.332;2022-12-18T14:28:15;1.90;99.90
25554;DHT22;13446;50.926;5.332;2022-12-18T14:30:42;2.00;99.90
25554;DHT22;13446;50.926;5.332;2022-12-18T14:35:38;2.00;99.90
25554;DHT22;13446;50.926;5.332;2022-12-18T14:38:47;2.10;99.90
25554;DHT22;13446;50.926;5.332;2022-12-18T14:41:15;2.40;99.90
25554;DHT22;13446;50.926;5.332;2022-12-18T14:43:40;2.50;99.90
25554;DHT22;13446;50.926;5.332;2022-12-18T14:46:19;2.50;99.90
25554;DHT22;13446;50.926;5.332;2022-12-18T14:48:50;2.40;99.90
25554;DHT22;13446;50.926;5.332;2022-12-18T14:51:20;2.50;99.90
25554;DHT22;13446;50.926;5.332;2022-12-18T14:53:46;2.30;99.90
25554;DHT22;13446;50.926;5.332;2022-12-18T14:56:15;2.40;99.90
25554;DHT22;13446;50.926;5.332;2022-12-18T14:58:44;2.40;99.90
25554;DHT22;13446;50.926;5.332;2022-12-18T15:01:17;2.60;99.90
25554;DHT22;13446;50.926;5.332;2022-12-18T15:03:43;2.50;99.90
25554;DHT22;13446;50.926;5.332;2022-12-18T15:06:16;2.40;99.90
25554;DHT22;13446;50.926;5.332;2022-12-18T15:08:41;2.30;99.90
25554;DHT22;13446;50.926;5.332;2022-12-18T15:11:27;2.40;99.90
25554;DHT22;13446;50.926;5.332;2022-12-18T15:13:53;2.60;99.90
25554;DHT22;13446;50.926;5.332;2022-12-18T15:16:18;2.60;99.90
25554;DHT22;13446;50.926;5.332;2022-12-18T15:18:44;2.60;99.90
25554;DHT22;13446;50.926;5.332;2022-12-18T15:21:17;2.70;99.90
25554;DHT22;13446;50.926;5.332;2022-12-18T15:26:08;2.50;99.90
25554;DHT22;13446;50.926;5.332;2022-12-18T15:28:45;2.40;99.90
25554;DHT22;13446;50.926;5.332;2022-12-18T15:33:38;2.20;99.90
25554;DHT22;13446;50.926;5.332;2022-12-18T15:36:07;2.30;99.90
25554;DHT22;13446;50.926;5.332;2022-12-18T15:38:33;2.20;99.90
25554;DHT22;13446;50.926;5.332;2022-12-18T15:40:59;2.00;99.90
25554;DHT22;13446;50.926;5.332;2022-12-18T15:43:25;1.90;99.90
25554;DHT22;13446;50.926;5.332;2022-12-18T15:46:22;1.70;99.90
25554;DHT22;13446;50.926;5.332;2022-12-18T15:48:47;2.00;99.90
25554;DHT22;13446;50.926;5.332;2022-12-18T15:51:17;2.10;99.90
25554;DHT22;13446;50.926;5.332;2022-12-18T15:53:43;2.10;99.90
25554;DHT22;13446;50.926;5.332;2022-12-18T15:56:10;2.10;99.90
25554;DHT22;13446;50.926;5.332;2022-12-18T15:58:54;2.10;99.90
25554;DHT22;13446;50.926;5.332;2022-12-18T16:01:20;2.30;99.90
25554;DHT22;13446;50.926;5.332;2022-12-18T16:03:47;2.40;99.90
25554;DHT22;13446;50.926;5.332;2022-12-18T16:06:13;2.50;99.90
25554;DHT22;13446;50.926;5.332;2022-12-18T16:08:38;2.50;99.90
25554;DHT22;13446;50.926;5.332;2022-12-18T16:11:04;2.50;99.90
25554;DHT22;13446;50.926;5.332;2022-12-18T16:13:30;2.50;99.90
25554;DHT22;13446;50.926;5.332;2022-12-18T16:15:56;2.50;99.90
25554;DHT22;13446;50.926;5.332;2022-12-18T16:18:22;2.60;99.90
25554;DHT22;13446;50.926;5.332;2022-12-18T16:20:47;2.60;99.90
25554;DHT22;13446;50.926;5.332;2022-12-18T16:23:13;2.70;99.90
25554;DHT22;13446;50.926;5.332;2022-12-18T16:25:38;2.70;99.90
25554;DHT22;13446;50.926;5.332;2022-12-18T16:28:04;2.80;99.90
25554;DHT22;13446;50.926;5.332;2022-12-18T16:30:30;2.70;99.90
25554;DHT22;13446;50.926;5.332;2022-12-18T16:32:56;2.70;99.90
25554;DHT22;13446;50.926;5.332;2022-12-18T16:35:22;2.70;99.90
25554;DHT22;13446;50.926;5.332;2022-12-18T16:37:48;2.50;99.90
25554;DHT22;13446;50.926;5.332;2022-12-18T16:40:14;2.60;99.90
25554;DHT22;13446;50.926;5.332;2022-12-18T16:42:43;2.60;99.90
25554;DHT22;13446;50.926;5.332;2022-12-18T16:45:12;2.50;99.90
25554;DHT22;13446;50.926;5.332;2022-12-18T16:47:38;2.60;99.90
25554;DHT22;13446;50.926;5.332;2022-12-18T16:50:04;2.70;99.90
25554;DHT22;13446;50.926;5.332;2022-12-18T16:52:29;2.60;99.90
25554;DHT22;13446;50.926;5.332;2022-12-18T16:54:55;2.60;99.90
25554;DHT22;13446;50.926;5.332;2022-12-18T16:57:21;2.70;99.90
25554;DHT22;13446;50.926;5.332;2022-12-18T16:59:46;2.70;99.90
25554;DHT22;13446;50.926;5.332;2022-12-18T17:02:22;2.70;99.90
25554;DHT22;13446;50.926;5.332;2022-12-18T17:04:48;2.60;99.90
25554;DHT22;13446;50.926;5.332;2022-12-18T17:07:14;2.50;99.90
25554;DHT22;13446;50.926;5.332;2022-12-18T17:09:40;2.50;99.90
25554;DHT22;13446;50.926;5.332;2022-12-18T17:12:06;2.50;99.90
25554;DHT22;13446;50.926;5.332;2022-12-18T17:14:33;2.60;99.90
25554;DHT22;13446;50.926;5.332;2022-12-18T17:16:59;2.80;99.90
25554;DHT22;13446;50.926;5.332;2022-12-18T17:19:25;2.90;99.90
25554;DHT22;13446;50.926;5.332;2022-12-18T17:21:51;2.90;99.90
25554;DHT22;13446;50.926;5.332;2022-12-18T17:24:17;2.70;99.90